Terminal Aerodrome Forecast
Issued by NWS

Home | Current Version | Previous Version | Text Only | Print | Product List | Glossary On
Versions: 1 2 3 4 5 6 7 8 9 10 11 12 13 14 15 16 17 18 19 20 21 22 23 24 25
000
FTUS45 KREV 202300
TAFRNO
TAF
KRNO 202331Z 2100/2124 29014G22KT P6SM SCT060 BKN100
     FM210300 VRB04KT P6SM SCT050 BKN080 OVC200
     FM212000 29010G18KT P6SM SCT060 BKN200=

USA.gov is the U.S. government's official web portal to all federal, state and local government web resources and services.